Time;durP1;ratioP1;P1;durP2;ratioP2;P2;SDS_P1;SDS_P2;PMS_P1;PMS_P2;Temp;Humidity;BMP_temperature;BMP_pressure;BME280_temperature;BME280_humidity;BME280_pressure;Samples;Min_cycle;Max_cycle;Signal;HPM_P1;HPM_P2
2023/05/25 00:01:37;;;;;;;18.13;7.03;;;;;;;;;;4942338;29;20180;-74
2023/05/25 00:04:03;;;;;;;13.95;8.00;;;;;;;;;;4941207;29;20416;-75
2023/05/25 00:06:30;;;;;;;14.32;8.02;;;;;;;;;;4941414;29;20545;-74
2023/05/25 00:08:57;;;;;;;19.25;8.15;;;;;;;;;;4941196;29;20186;-75
2023/05/25 00:11:26;;;;;;;15.90;8.93;;;;;;;;;;4942128;29;20184;-75
2023/05/25 00:13:52;;;;;;;14.00;7.95;;;;;;;;;;4941566;29;20184;-74
2023/05/25 00:16:18;;;;;;;18.00;8.30;;;;;;;;;;4941753;29;20236;-74
2023/05/25 00:18:47;;;;;;;15.27;8.35;;;;;;;;;;4941202;29;20631;-74
2023/05/25 00:21:14;;;;;;;19.55;9.45;;;;;;;;;;4941598;29;20193;-75
2023/05/25 00:23:40;;;;;;;11.23;8.55;;;;;;;;;;4941646;29;20186;-74
2023/05/25 00:26:06;;;;;;;21.73;8.32;;;;;;;;;;4941421;29;20182;-75
2023/05/25 00:28:32;;;;;;;17.67;8.55;;;;;;;;;;4941714;29;20220;-74
2023/05/25 00:30:58;;;;;;;15.00;8.77;;;;;;;;;;4940923;29;20558;-76
2023/05/25 00:33:24;;;;;;;13.80;8.00;;;;;;;;;;4941837;29;20410;-74
2023/05/25 00:35:52;;;;;;;14.35;9.60;;;;;;;;;;4941309;29;20177;-74
2023/05/25 00:38:19;;;;;;;14.48;9.05;;;;;;;;;;4941312;29;20260;-74
2023/05/25 00:40:45;;;;;;;13.02;8.80;;;;;;;;;;4941081;29;20182;-74
2023/05/25 00:43:11;;;;;;;19.73;9.50;;;;;;;;;;4941541;29;20264;-74
2023/05/25 00:45:38;;;;;;;12.65;9.32;;;;;;;;;;4940907;29;20681;-74
2023/05/25 00:48:04;;;;;;;13.43;9.50;;;;;;;;;;4941354;29;20201;-75
2023/05/25 00:50:36;;;;;;;18.83;9.27;;;;;;;;;;4941164;29;20241;-74
2023/05/25 00:53:02;;;;;;;15.30;8.15;;;;;;;;;;4940951;29;20181;-74
2023/05/25 00:55:30;;;;;;;17.90;8.20;;;;;;;;;;4941367;29;20209;-74
2023/05/25 00:57:58;;;;;;;18.85;9.13;;;;;;;;;;4941200;29;20420;-74
2023/05/25 01:00:24;;;;;;;12.88;7.90;;;;;;;;;;4940835;29;20182;-74
2023/05/25 01:02:51;;;;;;;15.13;8.60;;;;;;;;;;4940976;29;20182;-75
2023/05/25 01:05:20;;;;;;;19.00;9.95;;;;;;;;;;4940842;29;20424;-74
2023/05/25 01:07:46;;;;;;;19.67;8.30;;;;;;;;;;4941221;29;20236;-72
2023/05/25 01:10:13;;;;;;;14.45;9.00;;;;;;;;;;4941202;29;20186;-75
2023/05/25 01:12:41;;;;;;;13.85;9.23;;;;;;;;;;4941321;29;20203;-74
2023/05/25 01:15:08;;;;;;;15.18;9.02;;;;;;;;;;4940527;29;20178;-74
2023/05/25 01:17:37;;;;;;;14.10;9.77;;;;;;;;;;4941541;29;20181;-74
2023/05/25 01:20:06;;;;;;;16.35;8.50;;;;;;;;;;4941250;29;20176;-74
2023/05/25 01:22:31;;;;;;;13.57;9.00;;;;;;;;;;4940935;29;20220;-74
2023/05/25 01:25:01;;;;;;;15.38;8.45;;;;;;;;;;4940924;29;20173;-74
2023/05/25 01:27:32;;;;;;;11.80;8.52;;;;;;;;;;4940802;29;20614;-74
2023/05/25 01:29:59;;;;;;;13.73;9.43;;;;;;;;;;4940794;29;20188;-74
2023/05/25 01:32:26;;;;;;;16.60;9.55;;;;;;;;;;4941032;29;20186;-74
2023/05/25 01:34:52;;;;;;;13.57;8.52;;;;;;;;;;4941168;29;20189;-74
2023/05/25 01:37:23;;;;;;;18.85;9.35;;;;;;;;;;4941120;29;20290;-74
2023/05/25 01:39:49;;;;;;;10.73;8.32;;;;;;;;;;4941382;29;20261;-74
2023/05/25 01:42:15;;;;;;;13.85;8.05;;;;;;;;;;4940799;29;20184;-74
2023/05/25 01:44:41;;;;;;;13.82;8.60;;;;;;;;;;4941243;29;20190;-74
2023/05/25 01:47:15;;;;;;;13.98;8.88;;;;;;;;;;4940417;29;20241;-74
2023/05/25 01:50:11;;;;;;;12.50;8.15;;;;;;;;;;4940987;29;20228;-74
2023/05/25 01:52:41;;;;;;;14.70;7.90;;;;;;;;;;4932201;29;20181;-74
2023/05/25 01:55:10;;;;;;;11.90;7.90;;;;;;;;;;4940270;29;20229;-74
2023/05/25 01:57:38;;;;;;;13.60;8.55;;;;;;;;;;4940460;29;20268;-74
2023/05/25 02:00:05;;;;;;;14.95;8.95;;;;;;;;;;4941853;29;20195;-74
2023/05/25 02:02:31;;;;;;;15.10;9.73;;;;;;;;;;4944717;29;20173;-74
2023/05/25 02:04:58;;;;;;;10.57;8.00;;;;;;;;;;4944223;29;20191;-74
2023/05/25 02:07:24;;;;;;;20.00;9.70;;;;;;;;;;4943753;29;20248;-74
2023/05/25 02:09:50;;;;;;;15.05;7.72;;;;;;;;;;4944266;29;20178;-74
2023/05/25 02:12:16;;;;;;;18.95;9.93;;;;;;;;;;4944530;29;20208;-74
2023/05/25 02:14:44;;;;;;;15.98;8.48;;;;;;;;;;4944475;29;20184;-74
2023/05/25 02:17:11;;;;;;;16.05;9.85;;;;;;;;;;4943997;29;20213;-75
2023/05/25 02:19:37;;;;;;;14.98;8.57;;;;;;;;;;4944477;29;20181;-74
2023/05/25 02:22:04;;;;;;;16.05;9.40;;;;;;;;;;4943341;29;20247;-76
2023/05/25 02:24:30;;;;;;;23.40;9.25;;;;;;;;;;4943998;29;20210;-74
2023/05/25 02:26:56;;;;;;;14.27;9.43;;;;;;;;;;4943944;29;20235;-74
2023/05/25 02:29:22;;;;;;;17.35;9.27;;;;;;;;;;4943638;29;20505;-72
2023/05/25 02:31:48;;;;;;;20.15;9.93;;;;;;;;;;4943127;29;20240;-74
2023/05/25 02:34:14;;;;;;;14.50;10.00;;;;;;;;;;4943426;29;20189;-75
2023/05/25 02:36:42;;;;;;;16.02;9.30;;;;;;;;;;4943170;29;20192;-74
2023/05/25 02:39:08;;;;;;;22.13;8.65;;;;;;;;;;4943082;29;20197;-75
2023/05/25 02:41:34;;;;;;;13.73;8.60;;;;;;;;;;4943858;29;20180;-74
2023/05/25 02:44:00;;;;;;;20.45;9.65;;;;;;;;;;4943308;29;20190;-72
2023/05/25 02:46:26;;;;;;;15.57;9.70;;;;;;;;;;4943292;29;20706;-74
2023/05/25 02:48:52;;;;;;;13.93;8.67;;;;;;;;;;4942723;29;20421;-74
2023/05/25 02:51:18;;;;;;;15.13;9.05;;;;;;;;;;4942685;29;20828;-74
2023/05/25 02:53:44;;;;;;;16.47;9.13;;;;;;;;;;4943352;29;20188;-73
2023/05/25 02:56:10;;;;;;;21.77;8.90;;;;;;;;;;4943016;29;20418;-74
2023/05/25 02:58:37;;;;;;;16.90;9.45;;;;;;;;;;4942892;29;20193;-73
2023/05/25 03:01:04;;;;;;;12.27;8.43;;;;;;;;;;4943239;29;20186;-73
2023/05/25 03:03:30;;;;;;;13.50;9.38;;;;;;;;;;4942603;29;20181;-74
2023/05/25 03:05:57;;;;;;;12.55;8.68;;;;;;;;;;4943391;29;20225;-73
2023/05/25 03:08:23;;;;;;;12.35;8.75;;;;;;;;;;4942706;29;20209;-74
2023/05/25 03:10:49;;;;;;;16.48;9.80;;;;;;;;;;4941912;29;20177;-74
2023/05/25 03:13:15;;;;;;;14.95;10.57;;;;;;;;;;4942671;29;20200;-74
2023/05/25 03:15:41;;;;;;;14.05;8.02;;;;;;;;;;4942613;29;20540;-74
2023/05/25 03:18:07;;;;;;;16.77;8.82;;;;;;;;;;4942238;29;20209;-75
2023/05/25 03:20:33;;;;;;;17.70;9.68;;;;;;;;;;4942761;29;20640;-74
2023/05/25 03:22:59;;;;;;;17.00;8.30;;;;;;;;;;4942901;29;20237;-74
2023/05/25 03:25:25;;;;;;;16.52;9.43;;;;;;;;;;4942321;29;20181;-74
2023/05/25 03:27:52;;;;;;;19.95;9.27;;;;;;;;;;4942801;29;20236;-74
2023/05/25 03:30:19;;;;;;;22.10;9.27;;;;;;;;;;4942713;29;20561;-74
2023/05/25 03:32:45;;;;;;;21.25;10.43;;;;;;;;;;4942761;29;20181;-74
2023/05/25 03:35:11;;;;;;;18.35;10.15;;;;;;;;;;4942651;29;20184;-74
2023/05/25 03:37:37;;;;;;;16.58;9.30;;;;;;;;;;4942837;29;20196;-74
2023/05/25 03:40:03;;;;;;;17.35;9.23;;;;;;;;;;4926191;29;20177;-74
2023/05/25 03:42:29;;;;;;;14.75;11.35;;;;;;;;;;4941763;29;20192;-74
2023/05/25 03:44:55;;;;;;;22.80;10.75;;;;;;;;;;4942468;29;20177;-74
2023/05/25 03:47:21;;;;;;;16.60;10.32;;;;;;;;;;4941791;29;20678;-74
2023/05/25 03:49:47;;;;;;;16.33;10.40;;;;;;;;;;4942076;29;20203;-74
2023/05/25 03:52:13;;;;;;;18.17;10.90;;;;;;;;;;4942366;29;20176;-75
2023/05/25 03:54:39;;;;;;;15.75;9.98;;;;;;;;;;4941755;29;20187;-74
2023/05/25 03:57:05;;;;;;;15.07;8.75;;;;;;;;;;4941922;29;20629;-73
2023/05/25 03:59:31;;;;;;;12.55;9.05;;;;;;;;;;4942080;29;20192;-74
2023/05/25 04:01:57;;;;;;;25.45;10.32;;;;;;;;;;4942308;29;20169;-74
2023/05/25 04:04:23;;;;;;;20.42;9.57;;;;;;;;;;4942199;29;20191;-74
2023/05/25 04:06:50;;;;;;;13.48;9.60;;;;;;;;;;4941645;29;20689;-74
2023/05/25 04:09:16;;;;;;;26.52;10.77;;;;;;;;;;4941845;29;20233;-74
2023/05/25 04:11:43;;;;;;;21.40;9.95;;;;;;;;;;4941857;29;20236;-74
2023/05/25 04:14:09;;;;;;;16.13;10.02;;;;;;;;;;4941776;29;20210;-74
2023/05/25 04:16:35;;;;;;;24.67;9.93;;;;;;;;;;4942227;29;20191;-74
2023/05/25 04:19:02;;;;;;;13.23;9.32;;;;;;;;;;4941856;29;20182;-74
2023/05/25 04:21:28;;;;;;;16.38;9.70;;;;;;;;;;4940996;29;20583;-74
2023/05/25 04:23:54;;;;;;;26.15;10.35;;;;;;;;;;4941456;29;20201;-74
2023/05/25 04:26:20;;;;;;;16.83;9.90;;;;;;;;;;4941382;29;20184;-74
2023/05/25 04:28:47;;;;;;;16.85;10.75;;;;;;;;;;4941453;29;20213;-74
2023/05/25 04:31:13;;;;;;;18.77;10.90;;;;;;;;;;4941530;29;20540;-75
2023/05/25 04:33:39;;;;;;;18.50;11.23;;;;;;;;;;4941466;29;20186;-73
2023/05/25 04:36:05;;;;;;;23.75;12.02;;;;;;;;;;4942060;29;20276;-74
2023/05/25 04:38:32;;;;;;;18.75;12.20;;;;;;;;;;4941401;29;20197;-74
2023/05/25 04:41:00;;;;;;;24.73;12.25;;;;;;;;;;4941325;29;20746;-74
2023/05/25 04:43:28;;;;;;;16.50;12.82;;;;;;;;;;4941604;29;20530;-74
2023/05/25 04:45:54;;;;;;;27.63;13.85;;;;;;;;;;4940896;29;20185;-74
2023/05/25 04:48:21;;;;;;;18.27;12.88;;;;;;;;;;4940471;29;20690;-74
2023/05/25 04:50:47;;;;;;;16.45;11.60;;;;;;;;;;4941126;29;20229;-74
2023/05/25 04:53:13;;;;;;;19.27;12.55;;;;;;;;;;4941054;29;20188;-76
2023/05/25 04:55:39;;;;;;;23.45;12.25;;;;;;;;;;4941241;29;20178;-74
2023/05/25 04:58:05;;;;;;;26.70;14.18;;;;;;;;;;4941322;29;20202;-74
2023/05/25 05:00:33;;;;;;;23.70;13.90;;;;;;;;;;4940732;29;20196;-73
2023/05/25 05:02:59;;;;;;;17.33;12.65;;;;;;;;;;4941117;29;20228;-73
2023/05/25 05:05:26;;;;;;;19.30;13.88;;;;;;;;;;4940613;29;20185;-74
2023/05/25 05:07:52;;;;;;;20.23;12.90;;;;;;;;;;4941644;29;20217;-73
2023/05/25 05:10:19;;;;;;;23.02;13.63;;;;;;;;;;4940987;29;20186;-74
2023/05/25 05:12:45;;;;;;;24.35;13.82;;;;;;;;;;4940923;29;20174;-74
2023/05/25 05:15:11;;;;;;;21.30;13.18;;;;;;;;;;4941074;29;20192;-74
2023/05/25 05:17:37;;;;;;;28.67;16.20;;;;;;;;;;4940492;29;20193;-74
2023/05/25 05:20:06;;;;;;;23.23;14.52;;;;;;;;;;4941049;29;20185;-74
2023/05/25 05:22:32;;;;;;;26.02;16.00;;;;;;;;;;4940361;29;20181;-74
2023/05/25 05:24:58;;;;;;;25.48;15.25;;;;;;;;;;4940894;29;20206;-74
2023/05/25 05:27:25;;;;;;;33.15;16.33;;;;;;;;;;4923821;29;20210;-74
2023/05/25 05:29:51;;;;;;;27.02;15.50;;;;;;;;;;4940442;29;20570;-74
2023/05/25 05:32:17;;;;;;;28.52;17.92;;;;;;;;;;4941080;29;20201;-75
2023/05/25 05:34:43;;;;;;;31.73;17.60;;;;;;;;;;4941659;29;20181;-74
2023/05/25 05:37:10;;;;;;;37.03;18.52;;;;;;;;;;4945589;29;20192;-74
2023/05/25 05:39:36;;;;;;;33.50;17.75;;;;;;;;;;4944456;29;20177;-74
2023/05/25 05:42:02;;;;;;;36.15;18.13;;;;;;;;;;4944676;29;20646;-74
2023/05/25 05:44:28;;;;;;;32.20;18.10;;;;;;;;;;4944652;29;20174;-74
2023/05/25 05:46:58;;;;;;;31.05;17.70;;;;;;;;;;4944148;29;20209;-74
2023/05/25 05:49:25;;;;;;;32.55;18.50;;;;;;;;;;4944510;29;20177;-74
2023/05/25 05:51:51;;;;;;;34.03;18.33;;;;;;;;;;4944395;29;20685;-74
2023/05/25 05:54:17;;;;;;;36.00;19.45;;;;;;;;;;4944001;29;20184;-75
2023/05/25 05:56:43;;;;;;;30.92;19.77;;;;;;;;;;4944551;29;20193;-73
2023/05/25 05:59:10;;;;;;;33.72;19.30;;;;;;;;;;4944386;29;20248;-74
2023/05/25 06:01:36;;;;;;;30.17;19.98;;;;;;;;;;4944389;29;20181;-74
2023/05/25 06:04:02;;;;;;;32.03;19.02;;;;;;;;;;4944609;29;20181;-74
2023/05/25 06:06:28;;;;;;;34.03;19.70;;;;;;;;;;4944175;29;20184;-74
2023/05/25 06:08:55;;;;;;;31.10;19.33;;;;;;;;;;4943921;29;20708;-74
2023/05/25 06:11:21;;;;;;;26.00;18.08;;;;;;;;;;4944012;29;20288;-74
2023/05/25 06:13:47;;;;;;;33.13;19.65;;;;;;;;;;4927734;29;20174;-73
2023/05/25 06:16:13;;;;;;;38.22;18.83;;;;;;;;;;4944270;29;20197;-74
2023/05/25 06:18:39;;;;;;;38.67;19.83;;;;;;;;;;4943603;29;20181;-74
2023/05/25 06:21:05;;;;;;;41.08;17.13;;;;;;;;;;4944082;29;20180;-74
2023/05/25 06:23:31;;;;;;;40.25;18.50;;;;;;;;;;4943884;29;20196;-74
2023/05/25 06:26:02;;;;;;;31.15;17.33;;;;;;;;;;4943293;29;20264;-78
2023/05/25 06:28:28;;;;;;;37.90;18.60;;;;;;;;;;4924897;29;20592;-77
2023/05/25 06:30:54;;;;;;;35.00;17.73;;;;;;;;;;4942336;29;20269;-76
2023/05/25 06:33:20;;;;;;;27.30;16.73;;;;;;;;;;4942003;29;20434;-76
2023/05/25 06:35:46;;;;;;;34.85;18.20;;;;;;;;;;4941932;29;20189;-76
2023/05/25 06:38:13;;;;;;;31.00;16.40;;;;;;;;;;4941746;29;20185;-76
2023/05/25 06:40:39;;;;;;;37.05;15.50;;;;;;;;;;4942034;29;21011;-76
2023/05/25 06:43:05;;;;;;;39.90;16.45;;;;;;;;;;4943046;29;20186;-75
2023/05/25 06:45:31;;;;;;;32.78;15.45;;;;;;;;;;4941141;29;20185;-76
2023/05/25 06:47:57;;;;;;;27.70;16.58;;;;;;;;;;4942672;29;20245;-78
2023/05/25 06:50:23;;;;;;;30.33;16.23;;;;;;;;;;4941857;29;20268;-76
2023/05/25 06:52:49;;;;;;;29.37;16.03;;;;;;;;;;4942068;29;20188;-76
2023/05/25 06:55:16;;;;;;;30.63;13.43;;;;;;;;;;4942033;29;20937;-76
2023/05/25 06:57:42;;;;;;;30.20;15.80;;;;;;;;;;4942095;29;20182;-77
2023/05/25 07:00:12;;;;;;;23.27;12.00;;;;;;;;;;4941634;29;20438;-76
2023/05/25 07:02:38;;;;;;;26.15;13.48;;;;;;;;;;4941947;29;20417;-76
2023/05/25 07:05:05;;;;;;;24.80;13.50;;;;;;;;;;4941522;29;20180;-76
2023/05/25 07:07:32;;;;;;;22.63;11.43;;;;;;;;;;4941591;29;20220;-76
2023/05/25 07:09:58;;;;;;;21.23;10.90;;;;;;;;;;4941672;29;20405;-76
2023/05/25 07:12:24;;;;;;;20.95;11.07;;;;;;;;;;4941537;29;20406;-77
2023/05/25 07:14:50;;;;;;;18.92;11.98;;;;;;;;;;4942179;29;20173;-76
2023/05/25 07:17:16;;;;;;;23.65;10.98;;;;;;;;;;4941618;29;20669;-76
2023/05/25 07:19:42;;;;;;;25.25;12.45;;;;;;;;;;4941106;29;20575;-76
2023/05/25 07:22:09;;;;;;;20.70;12.13;;;;;;;;;;4941628;29;20217;-76
2023/05/25 07:24:35;;;;;;;23.17;10.63;;;;;;;;;;4941381;29;20575;-76
2023/05/25 07:27:02;;;;;;;21.13;10.47;;;;;;;;;;4941354;29;20460;-76
2023/05/25 07:29:28;;;;;;;26.37;10.83;;;;;;;;;;4941565;29;20413;-76
2023/05/25 07:31:54;;;;;;;21.07;10.07;;;;;;;;;;4940938;29;20414;-76
2023/05/25 07:34:20;;;;;;;16.33;9.43;;;;;;;;;;4941473;29;20406;-76
2023/05/25 07:36:46;;;;;;;17.60;9.77;;;;;;;;;;4941319;29;20748;-76
2023/05/25 07:39:12;;;;;;;18.63;10.50;;;;;;;;;;4941491;29;20406;-76
2023/05/25 07:41:39;;;;;;;23.40;10.00;;;;;;;;;;4940943;29;20406;-77
2023/05/25 07:44:05;;;;;;;20.10;10.60;;;;;;;;;;4940718;29;20425;-77
2023/05/25 07:46:31;;;;;;;20.40;10.10;;;;;;;;;;4940789;29;20418;-76
2023/05/25 07:48:58;;;;;;;17.30;9.57;;;;;;;;;;4940752;29;20472;-76
2023/05/25 07:51:27;;;;;;;21.93;10.37;;;;;;;;;;4940662;29;20461;-77
2023/05/25 07:53:55;;;;;;;20.07;8.83;;;;;;;;;;4941035;29;20410;-76
2023/05/25 07:56:21;;;;;;;18.67;9.30;;;;;;;;;;4940595;29;20929;-76
2023/05/25 07:58:47;;;;;;;17.53;10.00;;;;;;;;;;4939492;29;20405;-76
2023/05/25 08:01:14;;;;;;;17.87;9.33;;;;;;;;;;4940883;29;20508;-76
2023/05/25 08:03:40;;;;;;;18.53;9.67;;;;;;;;;;4940007;29;20410;-76
2023/05/25 08:06:07;;;;;;;17.30;9.10;;;;;;;;;;4940648;29;20497;-76
2023/05/25 08:08:33;;;;;;;18.63;9.13;;;;;;;;;;4939759;29;20469;-77
2023/05/25 08:11:00;;;;;;;23.20;9.10;;;;;;;;;;4938843;29;20417;-76
2023/05/25 08:13:26;;;;;;;22.60;10.13;;;;;;;;;;4939680;29;20508;-76
2023/05/25 08:15:52;;;;;;;21.00;9.67;;;;;;;;;;4941234;29;20428;-76
2023/05/25 08:18:18;;;;;;;18.63;8.77;;;;;;;;;;4940612;29;20775;-76
2023/05/25 08:20:44;;;;;;;15.87;9.53;;;;;;;;;;4939689;29;20417;-76
2023/05/25 08:23:10;;;;;;;15.57;9.40;;;;;;;;;;4940098;29;20822;-76
2023/05/25 08:25:36;;;;;;;27.00;10.33;;;;;;;;;;4940029;29;20479;-75
2023/05/25 08:28:02;;;;;;;17.80;11.27;;;;;;;;;;4939449;29;20520;-76
2023/05/25 08:30:29;;;;;;;20.70;10.10;;;;;;;;;;4940082;29;20786;-76
2023/05/25 08:32:55;;;;;;;20.23;12.63;;;;;;;;;;4939871;29;20413;-75
2023/05/25 08:35:21;;;;;;;19.77;13.33;;;;;;;;;;4939973;29;20406;-76
2023/05/25 08:37:47;;;;;;;18.90;12.03;;;;;;;;;;4940055;29;20384;-76
2023/05/25 08:40:18;;;;;;;21.67;15.47;;;;;;;;;;4939948;29;20420;-76
2023/05/25 08:42:45;;;;;;;22.77;14.80;;;;;;;;;;4939870;29;20413;-76
2023/05/25 08:45:11;;;;;;;14.90;12.60;;;;;;;;;;4939753;29;20413;-76
2023/05/25 08:47:43;;;;;;;15.40;11.10;;;;;;;;;;4938922;29;20969;-76
2023/05/25 08:50:10;;;;;;;17.17;12.57;;;;;;;;;;4939523;29;20789;-76
2023/05/25 08:52:37;;;;;;;16.17;10.17;;;;;;;;;;4939687;29;20781;-76
2023/05/25 08:55:05;;;;;;;13.70;9.13;;;;;;;;;;4939636;29;20902;-76
2023/05/25 08:57:44;;;;;;;14.33;8.60;;;;;;;;;;4939212;29;20499;-76
2023/05/25 09:00:14;;;;;;;13.73;8.40;;;;;;;;;;4939250;29;20915;-76
2023/05/25 09:02:50;;;;;;;12.10;7.07;;;;;;;;;;4939414;29;20424;-77
2023/05/25 09:05:17;;;;;;;14.10;7.30;;;;;;;;;;4939062;29;20462;-76
2023/05/25 09:07:43;;;;;;;12.53;7.87;;;;;;;;;;4938593;29;20987;-76
2023/05/25 09:10:13;;;;;;;14.60;8.10;;;;;;;;;;4938349;29;20910;-76
2023/05/25 09:12:41;;;;;;;13.20;9.07;;;;;;;;;;4938784;29;20405;-76
2023/05/25 09:15:09;;;;;;;13.93;7.60;;;;;;;;;;4938797;29;20387;-76
2023/05/25 09:17:35;;;;;;;19.10;8.10;;;;;;;;;;4938832;29;20398;-76
2023/05/25 09:20:02;;;;;;;12.27;7.90;;;;;;;;;;4939132;29;20418;-76
2023/05/25 09:22:28;;;;;;;10.93;6.90;;;;;;;;;;4939107;29;20405;-76
2023/05/25 09:24:54;;;;;;;13.73;7.53;;;;;;;;;;4939275;29;20828;-77
2023/05/25 09:27:22;;;;;;;13.80;7.87;;;;;;;;;;4938541;29;20512;-77
2023/05/25 09:29:48;;;;;;;9.30;6.80;;;;;;;;;;4938331;29;20929;-77
2023/05/25 09:32:15;;;;;;;15.67;7.07;;;;;;;;;;4938806;29;20412;-77
2023/05/25 09:34:43;;;;;;;16.77;7.30;;;;;;;;;;4938738;29;20437;-77
2023/05/25 09:37:18;;;;;;;17.40;7.17;;;;;;;;;;4938757;29;20466;-77
2023/05/25 09:39:44;;;;;;;10.53;6.93;;;;;;;;;;4937024;29;20470;-77
2023/05/25 09:42:10;;;;;;;11.47;7.00;;;;;;;;;;4938814;29;20440;-77
2023/05/25 09:44:37;;;;;;;9.73;6.33;;;;;;;;;;4938916;29;20392;-77
2023/05/25 09:47:04;;;;;;;8.00;6.33;;;;;;;;;;4938231;29;20393;-77
2023/05/25 09:49:30;;;;;;;12.33;7.07;;;;;;;;;;4938662;29;20441;-77
2023/05/25 09:51:56;;;;;;;12.20;7.50;;;;;;;;;;4937764;29;20436;-77
2023/05/25 09:54:22;;;;;;;10.77;6.77;;;;;;;;;;4937915;29;20899;-76
2023/05/25 09:56:48;;;;;;;11.10;5.93;;;;;;;;;;4937278;29;20384;-77
2023/05/25 09:59:14;;;;;;;10.30;6.47;;;;;;;;;;4937503;29;20422;-77
2023/05/25 10:01:43;;;;;;;6.50;5.70;;;;;;;;;;4937383;29;20425;-77
2023/05/25 10:04:09;;;;;;;9.37;6.00;;;;;;;;;;4937351;29;20484;-77
2023/05/25 10:06:36;;;;;;;14.53;6.47;;;;;;;;;;4936781;29;20409;-77
2023/05/25 10:09:03;;;;;;;8.57;6.30;;;;;;;;;;4937305;29;20519;-77
2023/05/25 10:11:30;;;;;;;13.43;7.07;;;;;;;;;;4936909;29;20430;-77
2023/05/25 10:13:57;;;;;;;11.60;6.87;;;;;;;;;;4937028;29;20401;-77
2023/05/25 10:16:28;;;;;;;9.30;6.00;;;;;;;;;;4937128;29;20455;-77
2023/05/25 10:19:01;;;;;;;11.00;7.00;;;;;;;;;;4937140;29;20400;-77
2023/05/25 10:21:28;;;;;;;10.40;7.47;;;;;;;;;;4939325;29;20393;-77
2023/05/25 10:23:57;;;;;;;10.70;7.40;;;;;;;;;;4940489;29;20496;-77
2023/05/25 10:26:25;;;;;;;11.20;6.87;;;;;;;;;;4940493;29;20488;-77
2023/05/25 10:28:53;;;;;;;7.07;6.30;;;;;;;;;;4940190;29;20469;-76
2023/05/25 10:31:20;;;;;;;8.37;6.20;;;;;;;;;;4939899;29;20477;-76
2023/05/25 10:33:46;;;;;;;8.67;6.40;;;;;;;;;;4939824;29;20428;-77
2023/05/25 10:36:12;;;;;;;12.17;6.50;;;;;;;;;;4940653;29;20453;-77
2023/05/25 10:38:43;;;;;;;8.50;5.83;;;;;;;;;;4940301;29;20437;-77
2023/05/25 10:41:10;;;;;;;8.13;6.33;;;;;;;;;;4955911;29;20452;-77
2023/05/25 10:43:37;;;;;;;9.00;6.10;;;;;;;;;;4959161;29;20495;-77
2023/05/25 10:46:04;;;;;;;8.60;6.50;;;;;;;;;;4959033;29;20909;-77
2023/05/25 10:48:37;;;;;;;11.27;6.87;;;;;;;;;;4959169;29;20468;-77
2023/05/25 10:51:03;;;;;;;6.60;5.40;;;;;;;;;;4959088;28;20456;-77
2023/05/25 10:53:29;;;;;;;15.50;6.07;;;;;;;;;;4958905;29;20437;-78
2023/05/25 10:56:03;;;;;;;7.43;6.03;;;;;;;;;;4958917;29;20413;-76
2023/05/25 10:58:29;;;;;;;10.13;5.80;;;;;;;;;;4949859;29;20445;-76
2023/05/25 11:01:03;;;;;;;7.00;4.77;;;;;;;;;;4939610;29;20977;-75
2023/05/25 11:03:44;;;;;;;9.43;5.33;;;;;;;;;;4939890;29;20405;-78
2023/05/25 11:06:14;;;;;;;12.53;5.20;;;;;;;;;;4940008;29;20413;-77
2023/05/25 11:08:55;;;;;;;6.80;4.50;;;;;;;;;;4957032;29;20558;-77
2023/05/25 11:11:22;;;;;;;9.00;5.10;;;;;;;;;;4958567;29;20405;-76
2023/05/25 11:13:49;;;;;;;7.97;5.60;;;;;;;;;;4957590;29;20472;-78
2023/05/25 11:16:19;;;;;;;9.03;4.30;;;;;;;;;;4939264;29;20465;-77
2023/05/25 11:18:51;;;;;;;8.43;4.53;;;;;;;;;;4939549;29;20422;-76
2023/05/25 11:21:41;;;;;;;6.40;4.60;;;;;;;;;;4939396;29;20493;-76
2023/05/25 11:24:14;;;;;;;5.80;4.50;;;;;;;;;;4939563;29;20933;-77
2023/05/25 11:26:57;;;;;;;7.43;5.03;;;;;;;;;;4939405;29;20441;-77
2023/05/25 11:29:24;;;;;;;7.67;4.07;;;;;;;;;;4939097;29;20550;-77
2023/05/25 11:31:54;;;;;;;10.43;4.30;;;;;;;;;;4938025;29;20996;-78
2023/05/25 11:34:23;;;;;;;6.30;4.63;;;;;;;;;;4938932;29;20548;-77
2023/05/25 11:36:53;;;;;;;4.67;3.50;;;;;;;;;;4938393;29;20413;-76
2023/05/25 11:39:21;;;;;;;8.90;4.83;;;;;;;;;;4939271;29;20413;-77
2023/05/25 11:41:48;;;;;;;5.93;4.13;;;;;;;;;;4945336;29;20778;-77
2023/05/25 11:44:14;;;;;;;6.90;3.03;;;;;;;;;;4957578;29;20983;-77
2023/05/25 11:46:42;;;;;;;5.63;3.63;;;;;;;;;;4957290;29;20405;-78
2023/05/25 11:49:08;;;;;;;6.97;3.10;;;;;;;;;;4939643;29;20484;-75
2023/05/25 11:51:36;;;;;;;4.80;2.90;;;;;;;;;;4957472;28;20464;-76
2023/05/25 11:54:02;;;;;;;10.50;3.57;;;;;;;;;;4957762;29;20415;-77
2023/05/25 11:56:32;;;;;;;7.20;3.00;;;;;;;;;;4957634;29;20413;-75
2023/05/25 11:58:58;;;;;;;5.47;3.90;;;;;;;;;;4957747;29;20911;-77
2023/05/25 12:01:24;;;;;;;5.60;3.23;;;;;;;;;;4957738;29;20431;-77
2023/05/25 12:03:52;;;;;;;6.03;3.43;;;;;;;;;;4957900;29;20425;-78
2023/05/25 12:06:28;;;;;;;5.67;3.90;;;;;;;;;;4957641;29;20420;-78
2023/05/25 12:08:55;;;;;;;8.30;3.70;;;;;;;;;;4957298;29;20500;-75
2023/05/25 12:11:31;;;;;;;5.03;3.73;;;;;;;;;;4957505;29;20416;-74
2023/05/25 12:13:58;;;;;;;6.40;2.90;;;;;;;;;;4957126;29;20401;-75
2023/05/25 12:16:24;;;;;;;5.23;3.20;;;;;;;;;;4957278;29;20471;-74
2023/05/25 12:18:54;;;;;;;5.83;3.40;;;;;;;;;;4957183;29;20794;-75
2023/05/25 12:21:20;;;;;;;5.70;3.23;;;;;;;;;;4957248;29;20509;-75
2023/05/25 12:23:47;;;;;;;4.77;3.40;;;;;;;;;;4956689;29;20416;-75
2023/05/25 12:26:13;;;;;;;5.27;3.30;;;;;;;;;;4957040;29;20404;-75
2023/05/25 12:28:40;;;;;;;5.90;3.67;;;;;;;;;;4957026;29;20475;-77
2023/05/25 12:31:22;;;;;;;5.07;3.43;;;;;;;;;;4957190;29;20424;-78
2023/05/25 12:34:07;;;;;;;9.00;3.10;;;;;;;;;;4956410;29;20408;-77
2023/05/25 12:36:42;;;;;;;7.07;3.30;;;;;;;;;;4956528;29;20773;-77
2023/05/25 12:39:08;;;;;;;4.70;3.03;;;;;;;;;;4956617;29;20934;-77
2023/05/25 12:41:53;;;;;;;4.67;3.17;;;;;;;;;;4956702;29;20428;-77
2023/05/25 12:44:32;;;;;;;5.03;3.17;;;;;;;;;;4956592;28;20410;-78
2023/05/25 12:47:15;;;;;;;4.53;3.50;;;;;;;;;;4956330;29;20774;-75
2023/05/25 12:49:43;;;;;;;4.63;3.83;;;;;;;;;;4956417;28;20404;-77
2023/05/25 12:52:10;;;;;;;6.17;4.00;;;;;;;;;;4956629;29;20416;-75
2023/05/25 12:54:43;;;;;;;4.63;3.20;;;;;;;;;;4956529;29;20815;-75
2023/05/25 12:57:13;;;;;;;3.83;3.50;;;;;;;;;;4956258;29;20416;-75
2023/05/25 12:59:40;;;;;;;9.30;5.50;;;;;;;;;;4956542;29;20896;-74
2023/05/25 13:02:07;;;;;;;7.63;4.87;;;;;;;;;;4957060;29;20401;-75
2023/05/25 13:04:34;;;;;;;6.83;4.00;;;;;;;;;;4956369;29;20396;-74
2023/05/25 13:07:00;;;;;;;5.73;4.23;;;;;;;;;;4956157;29;20802;-77
2023/05/25 13:09:26;;;;;;;8.33;4.00;;;;;;;;;;4956673;29;20499;-74
2023/05/25 13:11:56;;;;;;;7.73;4.40;;;;;;;;;;4956490;29;20428;-74
2023/05/25 13:14:22;;;;;;;5.83;3.90;;;;;;;;;;4956762;29;20510;-77
2023/05/25 13:16:49;;;;;;;6.23;4.70;;;;;;;;;;4955088;29;20901;-77
2023/05/25 13:19:15;;;;;;;8.63;5.00;;;;;;;;;;4956499;29;20436;-77
2023/05/25 13:21:41;;;;;;;7.47;4.60;;;;;;;;;;4955909;29;20778;-77
2023/05/25 13:24:07;;;;;;;8.93;4.83;;;;;;;;;;4938724;29;20944;-77
2023/05/25 13:26:34;;;;;;;6.17;4.77;;;;;;;;;;4956175;29;20412;-77
2023/05/25 13:29:00;;;;;;;6.33;4.30;;;;;;;;;;4956098;29;20507;-79
2023/05/25 13:31:26;;;;;;;6.20;4.60;;;;;;;;;;4939210;29;20436;-77
2023/05/25 13:33:52;;;;;;;11.83;5.50;;;;;;;;;;4956069;29;20522;-74
2023/05/25 13:36:18;;;;;;;7.43;4.90;;;;;;;;;;4956390;29;20458;-74
2023/05/25 13:38:45;;;;;;;11.90;5.60;;;;;;;;;;4955860;29;20503;-75
2023/05/25 13:41:11;;;;;;;6.63;4.97;;;;;;;;;;4955918;29;20404;-75
2023/05/25 13:43:37;;;;;;;7.10;4.33;;;;;;;;;;4956514;29;20379;-74
2023/05/25 13:46:04;;;;;;;8.13;5.00;;;;;;;;;;4955936;29;20380;-75
2023/05/25 13:48:30;;;;;;;9.40;5.90;;;;;;;;;;4955947;29;20446;-75
2023/05/25 13:50:56;;;;;;;9.37;5.97;;;;;;;;;;4955268;29;20530;-75
2023/05/25 13:53:22;;;;;;;10.10;5.47;;;;;;;;;;4956189;29;20544;-74
2023/05/25 13:55:48;;;;;;;9.53;5.20;;;;;;;;;;4956695;28;20436;-75
2023/05/25 13:58:14;;;;;;;7.87;4.50;;;;;;;;;;4959958;29;20439;-74
2023/05/25 14:00:40;;;;;;;6.37;4.70;;;;;;;;;;4958194;29;20423;-75
2023/05/25 14:03:06;;;;;;;8.73;5.00;;;;;;;;;;4959099;29;20414;-74
2023/05/25 14:05:32;;;;;;;9.50;5.47;;;;;;;;;;4959084;29;20447;-75
2023/05/25 14:08:03;;;;;;;5.10;4.60;;;;;;;;;;4959237;29;20522;-75
2023/05/25 14:10:29;;;;;;;6.93;4.80;;;;;;;;;;4959233;29;20412;-74
2023/05/25 14:12:55;;;;;;;10.63;6.10;;;;;;;;;;4959188;29;20758;-75
2023/05/25 14:15:21;;;;;;;6.90;4.27;;;;;;;;;;4958930;29;20826;-74
2023/05/25 14:17:47;;;;;;;9.73;5.17;;;;;;;;;;4959015;29;20416;-75
2023/05/25 14:20:19;;;;;;;13.00;5.00;;;;;;;;;;4944954;29;20420;-75
2023/05/25 14:22:45;;;;;;;8.33;5.80;;;;;;;;;;4939694;29;20833;-75
2023/05/25 14:25:11;;;;;;;7.43;5.03;;;;;;;;;;4939761;29;20549;-76
2023/05/25 14:27:37;;;;;;;7.63;4.70;;;;;;;;;;4939591;29;20807;-76
2023/05/25 14:30:05;;;;;;;6.57;5.27;;;;;;;;;;4939600;29;20965;-76